Time;durP1;ratioP1;P1;durP2;ratioP2;P2;SDS_P1;SDS_P2;PMS_P1;PMS_P2;Temp;Humidity;BMP_temperature;BMP_pressure;BME280_temperature;BME280_humidity;BME280_pressure;Samples;Min_cycle;Max_cycle;Signal;HPM_P1;HPM_P2
2022/04/22 00:02:04;;;;;;;12.30;8.15;;;;;;;10.96;54.61;97971.94;5177032;28;20573;-85
2022/04/22 00:04:56;;;;;;;10.25;7.05;;;;;;;10.88;54.32;97968.47;5205848;28;20056;-85
2022/04/22 00:07:47;;;;;;;12.57;8.45;;;;;;;10.78;54.46;97972.16;5190790;28;20088;-85
2022/04/22 00:11:29;;;;;;;14.95;9.10;;;;;;;10.62;55.83;97955.47;5191074;28;20049;-85
2022/04/22 00:13:47;;;;;;;13.15;8.60;;;;;;;10.79;55.34;97971.19;5205640;28;20064;-85
2022/04/22 00:16:37;;;;;;;13.20;8.68;;;;;;;10.56;55.50;97957.81;5176539;28;20049;-85
2022/04/22 00:19:28;;;;;;;12.48;8.18;;;;;;;10.69;55.15;97977.66;5190696;28;20128;-85
2022/04/22 00:22:18;;;;;;;14.52;9.43;;;;;;;10.62;55.03;97953.63;5176736;28;20068;-85
2022/04/22 00:25:13;;;;;;;14.02;9.43;;;;;;;10.45;56.16;97958.13;5190342;28;20172;-85
2022/04/22 00:28:04;;;;;;;13.00;8.70;;;;;;;10.37;55.57;97952.88;5190503;28;20053;-85
2022/04/22 00:30:55;;;;;;;11.70;8.30;;;;;;;10.25;55.60;97965.59;5190090;28;20496;-86
2022/04/22 00:33:45;;;;;;;16.55;8.48;;;;;;;10.23;56.09;97972.03;5175396;28;20136;-86
2022/04/22 00:36:35;;;;;;;16.05;9.20;;;;;;;10.12;56.39;97962.63;5190237;28;20051;-85
2022/04/22 00:39:25;;;;;;;13.80;9.15;;;;;;;9.90;57.06;97948.25;5176807;28;20059;-85
2022/04/22 00:42:16;;;;;;;15.88;10.02;;;;;;;9.77;56.79;97940.78;5176722;28;20430;-85
2022/04/22 00:45:08;;;;;;;17.35;9.80;;;;;;;9.97;57.00;97965.13;5152119;28;20058;-85
2022/04/22 00:47:58;;;;;;;16.92;10.02;;;;;;;9.79;57.06;97941.41;5157836;28;20097;-84
2022/04/22 00:50:48;;;;;;;19.77;10.95;;;;;;;9.53;56.77;97914.28;5154848;28;20136;-84
2022/04/22 00:53:41;;;;;;;20.23;11.10;;;;;;;9.61;57.04;97932.81;5136034;28;20058;-84
2022/04/22 00:56:31;;;;;;;16.60;10.60;;;;;;;9.67;57.90;97937.47;5165019;28;20189;-84
2022/04/22 00:59:23;;;;;;;16.30;10.40;;;;;;;9.62;57.79;97953.00;5167791;28;20420;-86
2022/04/22 01:02:14;;;;;;;18.17;10.90;;;;;;;9.66;57.32;97941.09;5181628;28;20054;-86
2022/04/22 01:11:23;;;;;;;23.90;11.25;;;;;;;9.75;57.84;97937.47;5204810;28;20076;-86
2022/04/22 01:14:13;;;;;;;20.10;12.32;;;;;;;9.57;57.51;97918.25;5205094;28;20139;-86
2022/04/22 01:17:04;;;;;;;20.73;13.02;;;;;;;9.77;58.07;97940.78;5189487;28;20536;-87
2022/04/22 01:19:55;;;;;;;19.83;12.73;;;;;;;9.57;58.55;97913.78;5176883;28;20526;-86
2022/04/22 01:22:45;;;;;;;20.15;12.50;;;;;;;9.79;57.77;97925.53;5189998;28;20601;-86
2022/04/22 01:25:36;;;;;;;22.23;12.45;;;;;;;9.65;57.75;97905.84;5175719;28;20434;-86
2022/04/22 01:28:28;;;;;;;22.35;12.50;;;;;;;9.59;58.00;97903.03;5176130;28;20061;-86
2022/04/22 01:31:22;;;;;;;19.83;12.25;;;;;;;9.51;58.63;97900.41;5188796;28;20069;-86
2022/04/22 01:34:13;;;;;;;18.85;12.32;;;;;;;9.28;58.67;97885.13;5175843;28;20687;-86
2022/04/22 01:37:03;;;;;;;18.15;12.30;;;;;;;9.28;59.15;97889.59;5149141;28;20082;-86
2022/04/22 01:39:54;;;;;;;19.60;12.38;;;;;;;9.13;59.23;97902.63;5149207;28;20057;-86
2022/04/22 01:42:44;;;;;;;19.75;12.85;;;;;;;9.06;59.26;97901.59;5163781;28;20109;-86
2022/04/22 01:45:34;;;;;;;21.85;13.02;;;;;;;9.01;58.90;97909.22;5169031;28;20065;-85
2022/04/22 01:48:25;;;;;;;21.38;13.25;;;;;;;8.90;59.07;97903.19;5184451;28;20065;-86
2022/04/22 01:51:15;;;;;;;21.50;13.07;;;;;;;8.88;59.54;97893.81;5170499;28;20132;-86
2022/04/22 01:54:06;;;;;;;19.58;12.70;;;;;;;8.69;60.03;97858.69;5183884;28;20523;-85
2022/04/22 01:56:56;;;;;;;23.55;13.57;;;;;;;8.87;59.87;97898.25;5168328;28;20084;-86
2022/04/22 01:59:48;;;;;;;21.00;13.60;;;;;;;8.64;60.11;97886.59;5168463;28;20057;-86
2022/04/22 02:02:38;;;;;;;22.58;14.43;;;;;;;8.63;60.11;97875.19;5168344;28;20599;-86
2022/04/22 02:05:28;;;;;;;22.70;13.93;;;;;;;8.63;60.16;97884.94;5168064;28;20128;-85
2022/04/22 02:08:20;;;;;;;22.15;13.50;;;;;;;8.57;60.16;97890.84;5168238;28;20443;-85
2022/04/22 02:11:11;;;;;;;22.55;13.73;;;;;;;8.20;60.83;97857.63;5168363;28;20133;-86
2022/04/22 02:14:01;;;;;;;21.67;13.95;;;;;;;8.08;60.61;97843.00;5168575;28;20076;-85
2022/04/22 02:16:52;;;;;;;21.50;13.93;;;;;;;8.13;60.21;97854.78;5147665;28;20056;-86
2022/04/22 02:19:42;;;;;;;23.98;14.80;;;;;;;8.32;60.59;97882.78;5148091;28;20064;-86
2022/04/22 02:22:34;;;;;;;22.88;13.75;;;;;;;8.34;60.88;97866.75;5148261;28;20450;-84
2022/04/22 02:25:24;;;;;;;27.52;15.15;;;;;;;8.34;61.01;97875.50;5147915;28;20081;-83
2022/04/22 02:28:33;;;;;;;26.48;14.07;;;;;;;8.29;60.33;97858.50;5163005;28;20104;-84
2022/04/22 02:31:23;;;;;;;25.52;14.52;;;;;;;7.87;60.85;97835.47;5148756;28;20057;-84
2022/04/22 02:34:14;;;;;;;22.95;13.07;;;;;;;7.80;61.05;97845.81;5150394;28;20054;-85
2022/04/22 02:37:04;;;;;;;22.52;13.07;;;;;;;7.42;61.25;97789.00;5155897;28;20505;-86
2022/04/22 02:39:54;;;;;;;23.17;13.90;;;;;;;7.58;61.43;97836.56;5152120;28;20136;-86
2022/04/22 02:46:04;;;;;;;22.92;13.85;;;;;;;7.51;61.68;97849.53;5131058;28;20055;-86
2022/04/22 02:48:59;;;;;;;24.95;14.30;;;;;;;7.86;62.13;97857.56;5162671;28;20050;-86
2022/04/22 02:51:51;;;;;;;24.67;14.27;;;;;;;7.40;61.88;97833.97;5147291;28;20046;-86
2022/04/22 02:54:42;;;;;;;23.17;14.30;;;;;;;7.64;62.24;97845.69;5152807;28;20568;-84
2022/04/22 02:57:32;;;;;;;21.67;13.45;;;;;;;7.53;62.25;97852.88;5180593;28;20045;-86
2022/04/22 03:00:23;;;;;;;21.77;13.18;;;;;;;7.17;62.77;97823.06;5194566;28;20053;-86
2022/04/22 03:03:13;;;;;;;22.55;13.95;;;;;;;7.42;62.82;97836.47;5194576;28;20056;-85
2022/04/22 03:06:04;;;;;;;25.05;15.02;;;;;;;7.49;63.80;97819.88;5181245;28;20116;-86
2022/04/22 03:08:54;;;;;;;28.58;15.88;;;;;;;7.29;63.71;97781.47;5195526;28;20567;-86
2022/04/22 03:11:44;;;;;;;28.20;14.95;;;;;;;7.75;63.30;97848.94;5194576;28;20056;-83
2022/04/22 03:14:34;;;;;;;26.88;15.80;;;;;;;7.47;63.76;97810.44;5209392;28;20134;-86
2022/04/22 03:17:25;;;;;;;28.10;15.98;;;;;;;7.65;63.66;97842.91;5209287;28;20439;-85
2022/04/22 03:20:15;;;;;;;29.20;16.60;;;;;;;7.50;63.78;97842.63;5194477;28;20054;-86
2022/04/22 03:23:06;;;;;;;28.83;16.30;;;;;;;7.30;63.79;97817.41;5181025;28;20064;-86
2022/04/22 03:25:56;;;;;;;30.48;17.25;;;;;;;7.27;63.97;97821.16;5194122;28;20056;-86
2022/04/22 03:28:47;;;;;;;32.50;17.38;;;;;;;7.31;64.16;97805.88;5181292;28;20088;-85
2022/04/22 03:31:37;;;;;;;29.42;18.20;;;;;;;7.47;63.33;97813.09;5181919;28;20551;-83
2022/04/22 03:34:27;;;;;;;31.33;18.17;;;;;;;7.58;63.19;97804.09;5210638;28;20168;-83
2022/04/22 03:37:17;;;;;;;33.05;18.15;;;;;;;7.32;63.70;97778.53;5174814;28;20140;-86
2022/04/22 03:40:10;;;;;;;37.90;20.90;;;;;;;7.38;64.22;97809.56;5174027;28;20061;-87
2022/04/22 03:43:00;;;;;;;38.33;20.52;;;;;;;7.71;63.71;97804.53;5189222;28;20065;-86
2022/04/22 03:45:50;;;;;;;34.03;20.10;;;;;;;7.54;63.75;97808.84;5186908;28;20525;-86
2022/04/22 03:48:41;;;;;;;36.55;20.83;;;;;;;7.54;63.84;97807.03;5181084;28;20075;-86
2022/04/22 03:51:31;;;;;;;37.10;20.95;;;;;;;7.31;64.46;97824.31;5195781;28;20136;-85
2022/04/22 03:54:24;;;;;;;38.92;21.17;;;;;;;7.18;64.43;97814.16;5196346;28;20053;-86
2022/04/22 04:00:48;;;;;;;40.67;20.35;;;;;;;6.93;65.11;97792.03;5162277;28;20098;-83
2022/04/22 04:03:38;;;;;;;42.50;19.55;;;;;;;6.95;64.53;97791.88;5133487;28;20108;-84
2022/04/22 04:06:29;;;;;;;43.15;23.45;;;;;;;7.22;65.15;97793.63;5158516;28;20135;-83
2022/04/22 04:18:45;;;;;;;47.53;26.33;;;;;;;7.17;65.34;97801.16;5186829;28;20046;-84
2022/04/22 04:24:45;;;;;;;43.25;24.08;;;;;;;7.11;64.95;97814.91;5194155;28;20132;-85
2022/04/22 04:27:36;;;;;;;45.90;24.38;;;;;;;7.04;64.83;97823.44;5157436;28;20122;-84
2022/04/22 04:30:26;;;;;;;44.28;23.92;;;;;;;7.04;65.39;97818.16;5185421;28;20056;-85
2022/04/22 04:33:19;;;;;;;50.05;26.63;;;;;;;6.99;65.91;97803.78;5167539;28;20132;-86
2022/04/22 04:36:10;;;;;;;47.05;26.58;;;;;;;7.14;65.84;97823.34;5166449;28;20203;-85
2022/04/22 04:39:00;;;;;;;46.83;26.92;;;;;;;7.07;65.70;97831.03;5170338;28;20140;-85
2022/04/22 04:41:51;;;;;;;43.60;25.33;;;;;;;6.89;65.54;97803.88;5148227;28;20601;-85
2022/04/22 04:44:41;;;;;;;50.28;27.38;;;;;;;7.35;66.11;97809.88;5139310;28;20153;-84
2022/04/22 04:47:41;;;;;;;53.85;27.10;;;;;;;7.39;66.30;97827.06;5189585;28;20525;-85
2022/04/22 04:50:31;;;;;;;45.88;25.20;;;;;;;7.47;64.34;97816.56;5187702;28;20058;-86
2022/04/22 04:53:25;;;;;;;49.33;27.02;;;;;;;7.32;65.24;97822.50;5164439;28;20185;-86
2022/04/22 04:56:15;;;;;;;49.88;26.13;;;;;;;7.07;65.19;97794.13;5162098;28;20053;-86
2022/04/22 04:59:05;;;;;;;45.72;26.48;;;;;;;7.08;65.07;97808.13;5144520;28;20100;-86
2022/04/22 05:01:55;;;;;;;46.85;24.85;;;;;;;6.93;65.24;97807.84;5158152;28;20054;-86
2022/04/22 05:04:45;;;;;;;48.42;26.55;;;;;;;7.04;65.30;97826.06;5158605;28;20167;-86
2022/04/22 05:07:50;;;;;;;61.33;30.00;;;;;;;7.14;66.02;97819.91;5160339;28;20047;-86
2022/04/22 05:10:40;;;;;;;52.97;27.60;;;;;;;7.28;66.49;97840.44;5184664;28;20443;-86
2022/04/22 05:13:31;;;;;;;54.50;28.00;;;;;;;7.15;66.38;97798.69;5155342;28;20053;-85
2022/04/22 05:16:21;;;;;;;55.63;28.10;;;;;;;7.39;65.81;97847.31;5187800;28;20042;-86
2022/04/22 05:19:12;;;;;;;47.85;26.42;;;;;;;7.33;65.49;97840.84;5168123;28;20046;-86
2022/04/22 05:22:02;;;;;;;48.45;27.92;;;;;;;7.32;65.41;97826.00;5168693;28;20140;-85
2022/04/22 05:24:52;;;;;;;50.22;25.48;;;;;;;7.38;65.92;97820.09;5169600;28;20531;-86
2022/04/22 05:27:43;;;;;;;54.80;26.33;;;;;;;7.45;64.48;97826.44;5136289;28;20058;-85
2022/04/22 05:33:43;;;;;;;57.10;28.27;;;;;;;7.62;65.87;97823.94;5174572;28;20060;-86
2022/04/22 05:36:34;;;;;;;54.65;28.55;;;;;;;7.56;65.12;97803.44;5169831;28;20145;-84
2022/04/22 05:39:24;;;;;;;59.03;28.80;;;;;;;7.63;66.11;97801.84;5189414;28;20060;-85
2022/04/22 05:42:13;;;;;;;53.45;27.92;;;;;;;7.64;64.64;97798.22;5188913;28;20064;-85
2022/04/22 05:45:06;;;;;;;56.67;30.83;;;;;;;8.00;64.86;97820.03;5162121;28;20519;-85
2022/04/22 05:47:59;;;;;;;59.63;28.77;;;;;;;8.04;65.38;97820.56;5188663;28;20080;-86
2022/04/22 05:50:49;;;;;;;57.70;30.40;;;;;;;8.09;65.63;97823.56;5173341;28;20060;-84
2022/04/22 05:53:44;;;;;;;54.20;29.42;;;;;;;8.17;65.05;97810.41;5187292;28;20064;-85
2022/04/22 05:56:35;;;;;;;53.45;29.50;;;;;;;8.32;65.14;97808.84;5188040;28;20064;-83
2022/04/22 05:59:25;;;;;;;54.28;29.67;;;;;;;8.35;64.80;97810.34;5188423;28;20531;-85
2022/04/22 06:02:17;;;;;;;54.42;30.30;;;;;;;8.56;64.97;97809.94;5187770;28;20072;-83
2022/04/22 06:05:13;;;;;;;67.70;31.10;;;;;;;8.83;64.92;97814.97;5187432;28;20139;-84
2022/04/22 06:11:16;;;;;;;55.42;30.17;;;;;;;8.81;65.59;97816.13;5188658;28;20127;-84
2022/04/22 06:14:09;;;;;;;53.85;30.08;;;;;;;9.08;63.83;97793.88;5188307;28;20124;-84
2022/04/22 06:16:59;;;;;;;57.58;29.73;;;;;;;9.17;63.22;97795.50;5147438;28;20132;-84
2022/04/22 06:19:49;;;;;;;56.13;30.63;;;;;;;9.18;63.05;97794.53;5147554;28;20139;-84
2022/04/22 06:22:39;;;;;;;54.80;29.90;;;;;;;9.45;63.22;97787.28;5147919;28;20061;-83
2022/04/22 06:25:29;;;;;;;54.78;30.20;;;;;;;9.32;63.14;97772.72;5162744;28;20065;-84
2022/04/22 06:28:19;;;;;;;55.83;30.95;;;;;;;9.71;62.23;97795.03;5155648;28;20046;-84
2022/04/22 06:31:10;;;;;;;55.05;29.88;;;;;;;9.42;62.79;97754.03;5173992;28;20424;-84
2022/04/22 06:34:01;;;;;;;53.15;30.67;;;;;;;9.82;63.47;97784.06;5172412;28;20060;-83
2022/04/22 06:36:52;;;;;;;52.13;29.95;;;;;;;9.81;61.52;97791.19;5172328;28;20052;-84
2022/04/22 06:46:01;;;;;;;53.28;29.02;;;;;;;10.41;61.12;97813.75;5180566;28;20128;-84
2022/04/22 06:48:51;;;;;;;47.33;29.25;;;;;;;10.11;61.45;97780.88;5180967;28;20132;-85
2022/04/22 06:51:41;;;;;;;50.60;29.88;;;;;;;10.48;60.67;97795.31;5177330;28;20056;-84
2022/04/22 06:54:32;;;;;;;51.97;29.60;;;;;;;10.93;60.45;97799.09;5176229;28;20108;-84
2022/04/22 06:57:24;;;;;;;47.33;27.10;;;;;;;10.21;59.85;97749.69;5172826;28;20053;-84
2022/04/22 07:00:16;;;;;;;50.97;28.75;;;;;;;10.11;61.02;97788.81;5169617;28;20081;-84
2022/04/22 07:03:08;;;;;;;106.95;44.60;;;;;;;10.74;58.88;97765.88;5169090;28;20523;-84
2022/04/22 07:05:59;;;;;;;55.35;29.10;;;;;;;11.13;57.97;97800.28;5184112;28;20061;-84
2022/04/22 07:08:49;;;;;;;56.88;29.73;;;;;;;11.19;59.16;97785.44;5189930;28;20042;-84
2022/04/22 07:11:41;;;;;;;48.50;27.20;;;;;;;11.11;58.24;97781.03;5188220;28;20061;-84
2022/04/22 07:14:33;;;;;;;47.42;27.10;;;;;;;10.99;60.02;97779.78;5170216;28;20113;-86
2022/04/22 07:17:23;;;;;;;42.97;26.95;;;;;;;11.36;58.26;97775.56;5169831;28;20050;-83
2022/04/22 07:20:14;;;;;;;45.70;27.17;;;;;;;10.76;60.92;97775.31;5169723;28;20436;-85
2022/04/22 07:23:06;;;;;;;50.25;26.55;;;;;;;11.93;57.20;97767.91;5155994;28;20080;-84
2022/04/22 07:25:58;;;;;;;50.03;27.35;;;;;;;12.46;56.04;97775.78;5182252;28;20196;-84
2022/04/22 07:28:49;;;;;;;42.80;25.20;;;;;;;12.01;56.10;97759.00;5169335;28;20608;-85
2022/04/22 07:31:40;;;;;;;43.13;26.17;;;;;;;12.76;53.55;97752.59;5167832;28;20061;-84
2022/04/22 07:34:30;;;;;;;43.92;26.08;;;;;;;13.57;52.09;97765.66;5169442;28;20080;-84
2022/04/22 07:37:21;;;;;;;56.65;28.20;;;;;;;14.38;51.93;97770.50;5183186;28;20476;-84
2022/04/22 07:40:13;;;;;;;58.15;29.77;;;;;;;15.29;50.30;97757.63;5168318;28;20057;-85
2022/04/22 07:46:48;;;;;;;46.13;24.83;;;;;;;16.15;45.33;97754.09;5186181;28;20053;-86
2022/04/22 07:49:40;;;;;;;33.97;21.25;;;;;;;17.36;44.38;97740.78;5171298;28;20068;-87
2022/04/22 07:52:36;;;;;;;61.00;28.55;;;;;;;18.02;41.48;97771.56;5162961;28;20056;-85
2022/04/22 07:55:26;;;;;;;66.07;28.48;;;;;;;17.94;41.14;97755.75;5175850;28;20053;-85
2022/04/22 07:58:17;;;;;;;31.23;20.85;;;;;;;17.48;43.55;97721.28;5162575;28;20060;-86
2022/04/22 08:01:08;;;;;;;31.80;20.85;;;;;;;18.45;41.63;97735.81;5160614;28;20056;-86
2022/04/22 08:04:00;;;;;;;31.90;20.65;;;;;;;18.18;41.75;97745.19;5174296;28;20084;-86
2022/04/22 08:06:51;;;;;;;30.25;20.65;;;;;;;18.85;42.29;97754.13;5175083;28;20127;-85
2022/04/22 08:10:01;;;;;;;28.75;18.55;;;;;;;19.41;38.29;97749.41;5173618;28;20085;-87
2022/04/22 08:12:51;;;;;;;25.80;18.58;;;;;;;19.25;38.28;97748.19;5156870;28;20046;-86
2022/04/22 08:15:42;;;;;;;26.77;19.25;;;;;;;18.76;39.55;97732.13;5186440;28;20057;-87
2022/04/22 08:18:32;;;;;;;34.15;19.48;;;;;;;19.31;41.11;97724.97;5172322;28;20073;-87
2022/04/22 08:21:23;;;;;;;29.42;18.75;;;;;;;18.69;38.52;97739.44;5180024;28;20346;-87
2022/04/22 08:24:13;;;;;;;27.08;19.05;;;;;;;19.47;37.67;97721.63;5170652;28;20747;-86
2022/04/22 08:27:04;;;;;;;29.52;18.77;;;;;;;19.38;38.11;97714.94;5184607;28;20864;-87
2022/04/22 08:29:54;;;;;;;27.70;18.85;;;;;;;19.55;38.87;97721.25;5170396;28;20064;-87
2022/04/22 08:32:45;;;;;;;27.10;18.65;;;;;;;20.29;38.71;97734.22;5171554;28;20513;-86
2022/04/22 08:35:36;;;;;;;25.80;18.85;;;;;;;18.70;40.24;97711.53;5185941;28;20456;-85
2022/04/22 08:38:26;;;;;;;24.70;17.58;;;;;;;20.37;37.23;97733.88;5171122;28;20068;-85
2022/04/22 08:41:20;;;;;;;26.13;18.15;;;;;;;20.87;38.28;97723.31;5171027;28;20054;-85
2022/04/22 08:44:13;;;;;;;27.13;18.30;;;;;;;19.98;37.18;97701.28;5177917;28;20183;-83
2022/04/22 08:50:19;;;;;;;28.25;19.27;;;;;;;17.62;43.58;97709.44;5204653;28;20791;-85
2022/04/22 08:53:11;;;;;;;27.73;19.33;;;;;;;18.49;41.52;97723.59;5186321;28;20591;-86
2022/04/22 08:56:02;;;;;;;25.83;18.83;;;;;;;19.34;39.52;97714.56;5185772;28;20056;-86
2022/04/22 08:58:52;;;;;;;23.52;17.92;;;;;;;18.19;40.88;97712.78;5169887;28;20084;-86
2022/04/22 09:01:42;;;;;;;24.52;17.88;;;;;;;18.38;42.90;97712.81;5185565;28;20496;-86
2022/04/22 09:04:33;;;;;;;26.25;18.52;;;;;;;19.53;40.00;97695.66;5190679;28;20092;-86
2022/04/22 09:07:28;;;;;;;24.35;18.25;;;;;;;19.76;38.37;97674.16;5189808;28;20099;-86
2022/04/22 09:10:18;;;;;;;27.77;19.23;;;;;;;19.81;38.86;97687.75;5190794;28;20475;-86
2022/04/22 09:13:10;;;;;;;27.23;17.67;;;;;;;18.22;42.83;97709.66;5190631;28;20055;-86
2022/04/22 09:16:00;;;;;;;26.92;18.02;;;;;;;18.41;43.39;97705.13;5178244;28;20054;-85
2022/04/22 09:19:02;;;;;;;23.58;17.65;;;;;;;19.25;41.22;97679.16;5173255;28;20046;-85
2022/04/22 09:21:57;;;;;;;22.35;17.25;;;;;;;20.26;37.41;97687.06;5174505;28;20057;-84
2022/04/22 09:24:56;;;;;;;22.17;17.40;;;;;;;21.11;39.07;97688.97;5182987;28;20133;-85
2022/04/22 09:27:48;;;;;;;27.80;15.80;;;;;;;22.18;36.61;97675.53;5212664;28;20136;-85
2022/04/22 09:30:41;;;;;;;21.75;16.50;;;;;;;21.13;36.84;97658.28;5197012;28;20112;-86
2022/04/22 09:33:44;;;;;;;25.90;16.37;;;;;;;20.96;38.51;97672.56;5195753;28;20425;-85
2022/04/22 09:42:52;;;;;;;22.25;15.48;;;;;;;20.93;38.72;97654.19;5195502;28;20108;-85
2022/04/22 09:45:42;;;;;;;21.30;15.93;;;;;;;20.37;39.30;97662.00;5206710;28;20045;-85
2022/04/22 09:48:44;;;;;;;23.90;16.10;;;;;;;20.07;38.30;97643.38;5201562;28;20052;-85
2022/04/22 09:51:34;;;;;;;22.13;15.73;;;;;;;20.33;38.33;97636.63;5214816;28;20061;-85
2022/04/22 09:54:25;;;;;;;21.13;15.73;;;;;;;20.65;39.34;97649.63;5196709;28;20459;-85
2022/04/22 09:57:15;;;;;;;21.48;14.93;;;;;;;20.08;39.16;97634.25;5170731;28;20076;-84
2022/04/22 10:00:06;;;;;;;20.75;16.40;;;;;;;20.66;36.88;97643.19;5171301;28;20056;-84
2022/04/22 10:02:56;;;;;;;22.05;16.38;;;;;;;21.16;37.58;97660.47;5170857;28;20107;-84
2022/04/22 10:05:50;;;;;;;22.63;15.27;;;;;;;21.96;35.11;97638.53;5181837;28;20578;-84
2022/04/22 10:08:43;;;;;;;20.88;15.48;;;;;;;21.29;36.30;97631.34;5170644;28;20049;-84
2022/04/22 10:11:34;;;;;;;23.23;16.25;;;;;;;21.38;37.47;97620.97;5189716;28;20429;-85
2022/04/22 10:14:35;;;;;;;22.30;15.63;;;;;;;21.97;36.47;97623.94;5176992;28;20061;-84
2022/04/22 10:17:25;;;;;;;21.27;15.57;;;;;;;20.47;37.63;97639.84;5185325;28;20088;-84
2022/04/22 10:20:17;;;;;;;19.98;15.20;;;;;;;20.10;39.52;97632.13;5185045;28;20058;-85
2022/04/22 10:23:07;;;;;;;23.63;15.73;;;;;;;19.41;38.38;97585.44;5185330;28;20547;-84
2022/04/22 10:25:57;;;;;;;21.63;15.32;;;;;;;19.65;41.92;97607.78;5170216;28;20053;-84
2022/04/22 10:28:48;;;;;;;22.83;15.32;;;;;;;20.46;37.73;97632.81;5209960;23;20045;-74
2022/04/22 10:31:39;;;;;;;22.25;15.45;;;;;;;20.75;36.63;97644.44;5200241;28;20115;-72
2022/04/22 10:34:41;;;;;;;27.58;15.40;;;;;;;18.80;40.23;97635.03;5202484;28;20063;-72
2022/04/22 10:37:33;;;;;;;31.08;16.40;;;;;;;20.05;40.08;97637.41;5202414;28;20263;-72
2022/04/22 10:40:25;;;;;;;22.90;16.05;;;;;;;18.68;42.57;97633.09;5202567;28;20415;-72
2022/04/22 10:43:15;;;;;;;28.17;16.00;;;;;;;18.92;40.79;97630.50;5202659;28;20083;-72
2022/04/22 10:49:21;;;;;;;;;;;;;;;19.78;38.03;97622.84;5200394;28;20055;-71
2022/04/22 10:52:18;;;;;;;24.83;16.00;;;;;;;17.78;42.04;97616.91;5202425;28;19928;-72
2022/04/22 10:55:08;;;;;;;22.08;16.23;;;;;;;17.80;43.45;97618.31;5199819;28;20080;-72
2022/04/22 10:58:14;;;;;;;21.08;15.63;;;;;;;18.84;41.46;97623.59;5202161;28;20057;-72
2022/04/22 11:01:04;;;;;;;23.17;15.98;;;;;;;18.97;42.37;97615.34;5201889;28;20073;-72
2022/04/22 11:03:56;;;;;;;22.42;16.15;;;;;;;20.10;39.89;97610.63;5200838;28;20060;-72
2022/04/22 11:06:46;;;;;;;19.75;15.95;;;;;;;19.84;40.60;97609.28;5184476;28;20059;-71
2022/04/22 11:09:43;;;;;;;22.70;16.25;;;;;;;20.56;40.07;97608.00;5200770;28;20138;-72
2022/04/22 11:12:52;;;;;;;24.17;15.88;;;;;;;20.64;39.69;97599.53;5200169;28;20046;-72
2022/04/22 11:15:43;;;;;;;25.08;16.25;;;;;;;21.06;37.42;97593.78;5201779;28;20041;-72
2022/04/22 11:18:35;;;;;;;25.63;16.02;;;;;;;19.53;39.54;97594.31;5205608;28;20042;-71
2022/04/22 11:21:31;;;;;;;22.63;15.32;;;;;;;20.19;39.83;97600.28;5190380;28;20140;-73
2022/04/22 11:24:33;;;;;;;19.67;15.35;;;;;;;20.61;42.49;97594.63;5203767;28;20056;-73
2022/04/22 11:27:28;;;;;;;23.77;16.02;;;;;;;21.35;37.31;97591.81;5205604;28;20053;-73
2022/04/22 11:30:18;;;;;;;24.08;15.80;;;;;;;21.55;37.61;97593.97;5204042;28;20208;-73
2022/04/22 11:33:21;;;;;;;21.75;15.98;;;;;;;21.05;36.48;97592.94;5202756;28;20467;-73
2022/04/22 11:36:12;;;;;;;18.75;15.45;;;;;;;19.82;39.74;97581.78;5190040;28;20464;-74
2022/04/22 11:39:01;;;;;;;25.00;15.02;;;;;;;21.05;38.47;97584.03;5205794;28;20094;-72
2022/04/22 11:42:01;;;;;;;22.15;14.57;;;;;;;19.45;39.04;97592.00;5205075;28;20680;-71
2022/04/22 11:45:02;;;;;;;25.98;16.30;;;;;;;19.46;40.76;97566.72;5205497;28;20050;-72
2022/04/22 11:47:51;;;;;;;20.45;14.85;;;;;;;20.77;41.06;97585.75;5205495;28;20063;-73
2022/04/22 11:50:43;;;;;;;20.33;16.02;;;;;;;18.39;41.26;97588.31;5205576;28;20156;-72
2022/04/22 11:53:33;;;;;;;19.95;14.63;;;;;;;20.04;39.70;97578.47;5205771;28;20150;-73
2022/04/22 11:56:23;;;;;;;18.83;14.32;;;;;;;20.64;38.13;97578.81;5205118;28;20060;-73
2022/04/22 11:59:13;;;;;;;22.92;16.08;;;;;;;20.59;38.61;97570.63;5190885;28;20430;-76
2022/04/22 12:05:35;;;;;;;18.75;14.85;;;;;;;20.54;37.26;97569.72;5205256;28;20681;-73
2022/04/22 12:08:25;;;;;;;21.45;14.98;;;;;;;20.54;37.82;97567.84;5205296;28;20064;-72
2022/04/22 12:11:16;;;;;;;22.20;15.40;;;;;;;21.01;36.86;97572.94;5204963;28;20048;-73
2022/04/22 12:14:11;;;;;;;19.25;14.55;;;;;;;21.03;38.00;97554.66;5190293;28;20056;-74
2022/04/22 12:17:04;;;;;;;19.42;14.05;;;;;;;20.66;38.94;97557.00;5189943;28;20143;-71
2022/04/22 12:19:54;;;;;;;21.77;13.90;;;;;;;20.77;40.07;97560.69;5205285;28;20060;-74
2022/04/22 12:22:48;;;;;;;27.15;14.30;;;;;;;20.36;38.59;97557.25;5204873;28;20608;-75
2022/04/22 12:25:38;;;;;;;24.50;14.50;;;;;;;20.91;37.73;97556.59;5204347;28;20496;-72
2022/04/22 12:28:29;;;;;;;14.25;11.30;;;;;;;20.94;35.56;97550.72;5202296;28;20056;-74
2022/04/22 12:31:22;;;;;;;14.40;10.00;;;;;;;20.32;35.07;97546.16;5204549;28;20075;-74
2022/04/22 12:34:15;;;;;;;16.45;12.30;;;;;;;20.73;35.24;97551.44;5204799;28;20068;-74
2022/04/22 12:37:07;;;;;;;14.20;11.65;;;;;;;20.92;34.88;97546.66;5204683;28;20057;-74
2022/04/22 12:40:07;;;;;;;16.88;11.68;;;;;;;21.35;35.17;97540.56;5189647;28;20064;-74
2022/04/22 12:43:27;;;;;;;15.93;10.70;;;;;;;21.52;33.95;97544.06;5204621;28;20053;-73
2022/04/22 12:52:54;;;;;;;14.02;11.15;;;;;;;19.82;36.56;97535.25;5204593;28;20077;-74
2022/04/22 12:56:07;;;;;;;15.38;11.48;;;;;;;19.61;35.30;97534.81;5189099;28;20060;-72
2022/04/22 12:58:59;;;;;;;14.73;11.50;;;;;;;20.18;36.59;97529.50;5189485;28;20064;-74
2022/04/22 13:01:50;;;;;;;17.58;12.88;;;;;;;20.57;35.79;97518.91;5203651;28;20516;-74
2022/04/22 13:04:54;;;;;;;16.92;11.80;;;;;;;20.95;36.06;97511.13;5189381;28;20056;-73
2022/04/22 13:07:52;;;;;;;14.90;10.23;;;;;;;21.11;35.04;97529.97;5204303;28;20092;-75
2022/04/22 13:10:43;;;;;;;20.35;10.90;;;;;;;21.27;34.21;97530.19;5188662;28;20507;-73
2022/04/22 13:13:34;;;;;;;14.13;11.30;;;;;;;21.17;35.41;97530.06;5204448;28;20063;-72
2022/04/22 13:16:24;;;;;;;16.30;11.80;;;;;;;21.32;34.10;97508.69;5189272;28;20061;-72
2022/04/22 13:19:14;;;;;;;19.88;10.65;;;;;;;20.85;35.17;97527.94;5204427;28;20052;-72
2022/04/22 13:22:04;;;;;;;31.95;12.18;;;;;;;20.83;33.64;97524.72;5204201;28;20107;-72
2022/04/22 13:24:55;;;;;;;16.90;11.35;;;;;;;20.99;35.24;97521.19;5204009;28;20195;-72
2022/04/22 13:27:45;;;;;;;15.65;11.65;;;;;;;20.47;35.92;97528.66;5203805;28;20059;-72
2022/04/22 13:30:36;;;;;;;15.80;11.95;;;;;;;20.61;35.45;97517.34;5204026;28;20495;-73
2022/04/22 13:33:31;;;;;;;17.95;12.25;;;;;;;20.27;37.12;97512.97;5203888;28;20053;-72
2022/04/22 13:36:21;;;;;;;18.08;13.15;;;;;;;20.94;34.30;97518.41;5204032;28;20053;-73
2022/04/22 13:39:11;;;;;;;15.65;11.63;;;;;;;20.17;35.11;97519.78;5204027;28;21181;-73
2022/04/22 13:42:01;;;;;;;14.38;10.40;;;;;;;20.45;35.22;97514.59;5203542;28;20057;-70
2022/04/22 13:54:19;;;;;;;21.33;11.52;;;;;;;20.81;34.62;97503.38;5203033;28;20053;-70
2022/04/22 13:57:09;;;;;;;19.08;11.73;;;;;;;20.98;34.75;97507.94;5203079;28;20518;-71
2022/04/22 13:59:59;;;;;;;15.70;11.85;;;;;;;21.14;34.50;97498.22;5203030;28;20049;-70
2022/04/22 14:02:49;;;;;;;15.85;11.82;;;;;;;21.10;34.54;97496.00;5203389;28;20107;-70
2022/04/22 14:05:40;;;;;;;14.02;10.52;;;;;;;20.98;34.67;97497.16;5203110;28;20190;-69
2022/04/22 14:08:30;;;;;;;13.80;10.45;;;;;;;21.03;33.67;97499.94;5202151;28;20080;-72
2022/04/22 14:11:21;;;;;;;16.27;11.23;;;;;;;21.26;33.84;97504.31;5184212;28;20111;-72
2022/04/22 14:14:11;;;;;;;15.75;11.70;;;;;;;21.02;33.80;97496.41;5201493;28;20054;-72
2022/04/22 14:17:01;;;;;;;14.82;10.75;;;;;;;20.67;34.48;97494.00;5201132;28;20060;-73
2022/04/22 14:19:51;;;;;;;17.77;11.60;;;;;;;19.58;35.89;97503.00;5202502;28;20049;-72
2022/04/22 14:22:41;;;;;;;18.23;12.20;;;;;;;19.53;35.72;97505.59;5202092;28;20052;-71
2022/04/22 14:25:32;;;;;;;16.13;10.77;;;;;;;19.45;35.93;97505.97;5201867;28;20139;-71
2022/04/22 14:28:22;;;;;;;13.13;9.20;;;;;;;20.49;35.13;97492.31;5200930;28;20045;-70
2022/04/22 14:31:13;;;;;;;14.10;10.00;;;;;;;20.77;34.28;97502.25;5200776;28;20187;-71